Tonopah, Nevada Weather observations

Data are for observation ending at time listed.
 Day   Time    Ave.   Ave.  Ave.  Vector   Max.   Stn.    Total    Solar   Ave.  
  of    of     Air    Rel.  Wind   Wind    Wind   Baro.  Precip.   Rad.    Soil  
Year   Day     Temp.  Hum.  Speed  Dir.    Gust   Pres.                    Temp. 
2016   (PST)    F      %     mph   deg.    mph     mb.     in.     W/m2     F   
------------------------------------------------------------------------------
 149   10:50   69.4    21    5.1   112     11.8   811.3    0.00    1035    69.9
 149   11:00   69.1    22    5.8   151     11.5   811.2    0.00    1072    70.4
 149   11:10   68.9    22    6.7   154     13.8   811.2    0.00     503    70.9
 149   11:20   67.1    23    5.0   195     10.7   811.2    0.00     284    71.5
 149   11:30   67.3    22    5.4   178     13.4   811.1    0.00     380    72.0
 149   11:40   67.8    21    7.2   174     17.6   811.0    0.00     773    72.4
 149   11:50   68.3    21    6.5   196     12.9   811.0    0.00    1012    72.7
 149   12:00   69.4    20    6.8   180     20.8   810.8    0.00    1032    72.9
 149   12:10   69.9    20    5.2   207     13.2   810.8    0.00     913    73.2
 149   12:20   69.6    20    7.0   170     17.0   810.7    0.00     740    73.4
 149   12:30   69.3    20    8.0   140     17.3   810.7    0.00     418    73.7
 149   12:40   70.2    19    6.2   174     16.7   810.7    0.00     811    74.1
 149   12:50   69.9    19    4.7   185     11.0   810.7    0.00     780    74.4
 149   13:00   70.2    19    4.6   145      9.1   810.6    0.00     925    74.6
 149   13:10   70.9    19    5.3   104     11.2   810.4    0.00     816    74.7
 149   13:20   70.9    18    8.2   105     18.9   810.4    0.00     510    74.9
 149   13:30   69.9    19    7.9   178     15.9   810.4    0.00     553    75.1
 149   13:40   69.2    21    9.3   168     24.8   810.6    0.00     422    75.3
 149   13:50   67.4    22    8.0    32     17.2   810.5    0.00     557    75.4
 149   14:00   69.3    19    5.7    44     15.3   810.4    0.00     770    75.5
 149   14:10   71.4    18    2.5    92      7.9   810.3    0.00     673    75.5
 149   14:20   69.9    19    4.8   142     15.3   810.3    0.00     232    75.5
 149   14:30   66.9    27    8.7   172     22.4   810.5    0.00     103    75.5
 149   14:40   64.3    34    4.3   120     10.5   810.5    0.00      70    75.4
 149   14:50   64.6    34    6.5    61     15.6   810.4    0.00      52    75.5
 149   15:00   64.4    30    8.9    98     15.1   810.8    0.00      49    75.3
 149   15:10   62.4    36    7.4    49     16.2   810.8    0.00      83    75.1
 149   15:20   62.9    34    6.3    59     12.6   810.7    0.00     179    74.8
 149   15:30   61.2    46    8.9    13     14.2   810.9    0.00     188    74.6
 149   15:40   61.0    40   13.1   358     19.6   811.1    0.00     147    74.2
 149   15:50   61.1    40   12.7   346     20.4   811.1    0.00     324    73.8
 149   16:00   61.2    39   11.8   358     19.2   811.1    0.00     395    73.5
 149   16:10   61.6    42   11.3    20     18.6   811.1    0.00     340    73.2
 149   16:20   61.3    42   11.4    29     18.9   811.1    0.00     175    72.9
 149   16:30   61.8    38    7.0    31     12.4   811.1    0.00     141    72.6
 149   16:40   63.0    34    5.4   334     11.2   811.0    0.00     160    72.4
 149   16:50   63.6    33    7.4     8     11.1   810.8    0.00     181    72.1
 149   17:00   63.1    33    5.1    10     10.2   810.9    0.00     190    71.9
 149   17:10   63.9    32    5.3   336      9.0   811.0    0.00     182    71.7
 149   17:20   63.9    31    6.8   317     12.1   811.0    0.00     155    71.6
 149   17:30   63.7    30    8.1   303     13.2   811.1    0.00     143    71.4
 149   17:40   63.5    29   10.7   289     16.8   811.0    0.00     115    71.3
 149   17:50   63.4    30   10.4   293     18.4   811.1    0.00     103    71.2
 149   18:00   62.8    32    9.4   308     16.8   811.2    0.00      99    71.0
 149   18:10   62.6    32    8.8   303     17.2   811.4    0.00      83    70.9
 149   18:20   62.1    33    9.5   310     17.4   811.5    0.00      62    70.7
 149   18:30   61.7    34    8.5   308     13.4   811.5    0.00      48    70.6
 149   18:40   61.3    34    8.1   304     14.8   811.6    0.00      30    70.4
 149   18:50   60.9    35    7.6   299     13.1   811.7    0.00      15    70.3
 149   19:00   60.5    36    6.0   303      9.2   812.0    0.00       6    70.1
 149   19:10   60.1    36    6.2   301      9.3   812.2    0.00       3    70.0
 149   19:20   59.9    37    5.9   312      9.3   812.4    0.00       0    69.8
 149   19:30   59.5    38    6.3   321     10.2   812.5    0.00       0    69.6
 149   19:40   59.1    38    5.2   307      7.5   812.5    0.00       0    69.4
 149   19:50   58.6    40    4.0   297      7.5   812.6    0.00       0    69.3
 149   20:00   58.0    41    2.7   316      4.1   812.7    0.00       0    69.1
 149   20:10   57.6    42    2.3   285      3.7   812.7    0.00       0    68.9
 149   20:20   57.8    42    2.4   243      4.2   812.8    0.00       0    68.8
 149   20:30   57.9    41    1.8   276      3.0   812.8    0.00       0    68.6
 149   20:40   57.0    43    3.2   249      5.6   812.9    0.00       0    68.4
 149   20:50   57.2    41    4.3   271      6.2   813.0    0.00       0    68.3
 149   21:00   56.8    43    4.2   288      5.8   812.9    0.00       0    68.1
 149   21:10   55.9    45    2.2   295      4.6   812.9    0.00       0    67.9
 149   21:20   55.9    44    2.7   238      5.0   812.9    0.00       0    67.8
 149   21:30   56.2    44    3.4   254      4.8   813.0    0.00       0    67.6
 149   21:40   56.3    44    3.5   269      5.2   813.0    0.00       0    67.4
 149   21:50   56.1    44    3.1   280      4.5   813.0    0.00       0    67.3
 149   22:00   55.5    46    2.6   287      4.2   812.9    0.00       0    67.1
 149   22:10   54.8    48    1.8   310      2.6   812.9    0.00       0    66.9
 149   22:20   53.9    49    0.7   311      2.1   812.9    0.00       0    66.8
 149   22:30   53.7    49    0.9   238      1.8   812.9    0.00       0    66.6
 149   22:40   53.6    50    1.5   252      2.6   812.8    0.00       0    66.4
 149   22:50   53.2    51    0.7   353      2.4   812.8    0.00       0    66.3
 149   23:00   52.5    52    0.2     3      0.9   812.8    0.00       0    66.1
 149   23:10   52.6    52    1.8   285      3.6   812.8    0.00       0    65.9
 149   23:20   52.7    53    3.5   287      7.2   812.8    0.00       0    65.8
 149   23:30   52.4    54    2.3   306      4.3   812.8    0.00       0    65.6
 149   23:40   51.7    57    0.9   356      1.7   812.8    0.00       0    65.4
 149   23:50   51.2    58    0.9    77      2.3   812.8    0.00       0    65.3
 150    0:00   51.4    58    1.4    96      2.1   812.8    0.00       0    65.2
 150    0:10   51.1    58    2.6   133      4.2   812.8    0.00       0    65.0
 150    0:20   50.9    58    2.0   154      3.6   812.8    0.00       0    64.9
 150    0:30   51.4    57    2.3   138      3.4   812.8    0.00       0    64.7
 150    0:40   52.1    56    1.7    81      2.6   812.9    0.00       0    64.6
 150    0:50   52.0    55    1.4    30      2.9   812.7    0.00       0    64.5
 150    1:00   53.7    49    2.2    64      4.5   812.8    0.00       0    64.4
 150    1:10   55.1    46    1.4    59      3.3   812.8    0.00       0    64.2
 150    1:20   54.3    47    0.4    34      2.0   812.7    0.00       0    64.1
 150    1:30   53.6    48    1.1   174      2.1   812.7    0.00       0    64.0
 150    1:40   53.8    48    1.7   117      3.4   812.7    0.00       0    63.9
 150    1:50   53.8    48    1.2   140      2.0   812.7    0.00       0    63.8
 150    2:00   52.2    51    1.7   114      2.9   812.7    0.00       0    63.7
 150    2:10   50.3    54    2.0   132      2.7   812.7    0.00       0    63.6
 150    2:20   49.6    55    2.5   125      3.1   812.7    0.00       0    63.4
 150    2:30   50.6    53    3.1   137      3.8   812.7    0.00       0    63.3
 150    2:40   50.5    53    2.6   135      3.7   812.7    0.00       0    63.2
 150    2:50   49.7    58    1.9   101      2.9   812.7    0.00       0    63.1
 150    3:00   48.5    61    0.2   230      1.9   812.8    0.00       0    62.9
 150    3:10   48.3    60    0.5     9      1.2   812.8    0.00       0    62.8
 150    3:20   48.0    61    0.7   125      1.8   812.8    0.00       0    62.7
 150    3:30   48.0    60    2.1   122      3.1   812.7    0.00       0    62.5
 150    3:40   47.0    62    1.9   122      3.0   812.8    0.00       0    62.4
 150    3:50   46.9    63    2.2   144      2.9   812.8    0.00       0    62.3
 150    4:00   46.8    64    1.5   122      2.3   812.9    0.00       0    62.2
 150    4:10   46.3    65    3.0   128      3.6   812.9    0.00       0    62.0
 150    4:20   46.5    65    2.7   114      3.4   813.0    0.00       1    61.9
 150    4:30   46.9    64    2.2   123      3.4   813.1    0.00       4    61.8
 150    4:40   47.0    61    2.2   138      3.4   813.2    0.00       9    61.6
 150    4:50   46.8    63    0.8   132      2.9   813.3    0.00      21    61.5
 150    5:00   46.3    66    2.1   105      2.9   813.4    0.00      32    61.4
 150    5:10   47.0    66    2.3   103      3.1   813.5    0.00      45    61.3
 150    5:20   47.6    67    2.1   102      2.9   813.6    0.00      81    61.2
 150    5:30   50.4    61    1.9   110      2.3   813.6    0.00     124    61.1
 150    5:40   53.3    57    1.5   101      2.3   813.6    0.00     143    61.0
 150    5:50   55.3    54    1.5   107      2.2   813.7    0.00     163    60.9
 150    6:00   57.3    48    1.8    98      3.4   813.8    0.00     188    60.9
 150    6:10   58.9    42    1.5    78      3.0   813.8    0.00     214    60.9
 150    6:20   61.4    38    0.5    51      1.2   813.9    0.00     261    60.9
 150    6:30   62.5    36    0.8    30      2.0   814.0    0.00     297    60.9
 150    6:40   62.7    34    1.7   110      3.4   814.1    0.00     351    61.0
 150    6:50   63.3    34    1.5    68      3.1   814.2    0.00     392    61.1
 150    7:00   63.5    34    2.1    83      4.1   814.2    0.00     413    61.3
 150    7:10   62.7    38    2.9   306      4.6   814.3    0.00     435    61.5
 150    7:20   62.6    38    3.2   307      5.1   814.3    0.00     493    61.7
 150    7:30   63.9    35    3.0   348      9.9   814.4    0.00     526    62.0
 150    7:40   64.1    32    3.4    67      7.1   814.5    0.00     529    62.2
 150    7:50   63.8    32    3.9    79      7.3   814.5    0.00     571    62.5
 150    8:00   64.2    33    3.0    71      5.7   814.6    0.00     608    62.8
 150    8:10   64.9    32    3.1    72      6.0   814.5    0.00     617    63.2
 150    8:20   65.4    31    4.1   106      7.0   814.6    0.00     700    63.5
 150    8:30   66.0    30    4.1   112      7.0   814.5    0.00     748    63.9
 150    8:40   66.1    30    4.4    80      7.8   814.5    0.00     788    64.3
 150    8:50   66.3    29    3.9    75      8.0   814.5    0.00     796    64.7
 150    9:00   66.3    29    4.0   162      8.0   814.5    0.00     849    65.2
 150    9:10   67.2    28    3.9   168      7.5   814.5    0.00     870    65.7
 150    9:20   68.1    27    4.3   111      7.5   814.5    0.00     879    66.1
 150    9:30   67.5    27    3.7   157      7.1   814.5    0.00     896    66.6
 150    9:40   69.5    24    2.4   226      6.6   814.5    0.00     918    67.0
 150    9:50   69.7    25    3.0   128      7.6   814.4    0.00     941    67.5
 150   10:00   69.6    24    4.3    76      8.9   814.3    0.00     959    68.0
 150   10:10   70.4    23    3.5   130      8.8   814.3    0.00     973    68.6
 150   10:20   70.9    22    3.6    89      8.8   814.3    0.00    1051    69.1
 150   10:30   69.9    21    3.3    36      8.2   814.3    0.00     693    69.7
 150   10:40   68.9    23    5.2   163      9.6   814.3    0.00     286    70.2

Return to Tonopah, Nevada graphs page.


Western Regional Climate Center,wrcc@dri.edu